Pagina principale
METAR-TAF:

METAR-TAF

Aeroporti :

Aeroporto di Perpignano-Rivesaltes

Perpignano, Francia

latitudine: 42-44N, longitudine: 002-52E, altezza: 43 m

Osservazione

Il bollettino è stato emesso 21 minuti fa, alle 03:00 UTC
Vento 9 kt da sud-ovest
Temperature 8°C
Umidità 61%
Pressione 1027 hPa
Visibilità 10 km o più
nessuna nube inferiore a 1500 m e nessun cumulonembo

METAR: LFMP 240300Z AUTO 23009KT CAVOK 08/01 Q1027 NOSIG

Ora: 04:21 (03:21 UTC)

Previsione

Il bollettino è stato emesso 1 ora e 21 minuti fa, alle 02:00 UTC
Previsione valida dal 24 alle 03 UTC al 25 alle 03 UTC
Vento 6 kt da ovest/sud-ovest
Visibilità 10 km o più
nessuna nube inferiore a 1500 m e nessun cumulonembo

TAF: LFMP 240200Z 2403/2503 25006KT CAVOK

Osservazioni e previsioni meteorologiche di più di 4000 aeroporti (messaggi METAR e TAF).

Le stazioni disponibili sono rappresentate dai dischi gialli e rossi sulla carta.

Puntare il mouse per vedere il nome della stazione.

Clicca sopra per visualizzare le osservazioni e previsioni meteorologiche.

Per cambiare la mappa : fare clic sui pulsanti verdi con una croce nera per ingrandire, il pulsante verde con un trattino per diminuire, o sulla freccia verde per le mappe adiacenti.


METAR-TAF: